Search for airport 
image banner adimage banner adimage banner ad
image banner ad

KACV - Arcata

Located in Arcata/Eureka, United States

ICAO - ACV, IATA - ACV

Data provided by Airmate  

General information

Coordinates: N40°58'40" W124°6'30"
Elevation is 222 feet MSL.
Magnetic variation is 17° East
View others Airports in California

Operational data

Special qualification required
Current time UTC:
Current local time:
Weather
METAR: KACV 240753Z AUTO 32004KT 5SM BR OVC004 12/12 A3002 RMK AO2 SLP172 T01220117 401500111
TAF: KACV 240528Z 2406/2506 VRB05KT 6SM BR BKN005 OVC010 FM241000 VRB04KT 4SM BR OVC004 FM241900 30008KT P6SM BKN007 FM250300 VRB04KT 5SM BR OVC005
View NOTAMs / SUP AIP / TFR affecting this airport [VIEW]
Communications frequencies: [VIEW]

Runways:

RWY identifierQFULength (ft)Width (ft)SurfaceLDA (ft)
0130°4501150ASPH4501
19210°4501150ASPH4501
14153°6046150ASPH5601
32333°6046150ASPH5846

Airport contact information

Address: Arcata/Eureka United States

Satellite view of KACV